createdAt,value
2022-09-16T00:00:08.395Z,61.45
2022-09-16T00:05:11.140Z,61.87
2022-09-16T00:10:14.250Z,61.73
2022-09-16T00:15:19.251Z,62.21
2022-09-16T00:20:21.957Z,61.90
2022-09-16T00:25:24.606Z,62.38
2022-09-16T00:30:28.655Z,62.36
2022-09-16T00:35:31.358Z,62.24
2022-09-16T00:40:34.223Z,62.87
2022-09-16T00:45:38.351Z,62.65
2022-09-16T00:50:46.975Z,62.53
2022-09-16T00:55:52.459Z,62.70
2022-09-16T01:00:56.775Z,62.83
2022-09-16T01:05:59.652Z,63.08
2022-09-16T01:11:02.514Z,63.60
2022-09-16T01:16:11.605Z,63.63
2022-09-16T01:21:23.573Z,63.57
2022-09-16T01:26:56.193Z,63.68
2022-09-16T01:32:05.187Z,63.92
2022-09-16T01:37:15.039Z,64.20
2022-09-16T01:42:30.870Z,64.32
2022-09-16T01:47:42.848Z,64.14
2022-09-16T01:52:55.889Z,64.49
2022-09-16T01:58:04.346Z,64.64
2022-09-16T02:03:12.717Z,64.48
2022-09-16T02:08:33.329Z,64.68
2022-09-16T02:13:40.489Z,64.68
2022-09-16T02:18:51.707Z,64.76
2022-09-16T02:23:59.812Z,64.80
2022-09-16T02:29:08.226Z,64.66
2022-09-16T02:34:16.579Z,64.91
2022-09-16T02:39:27.294Z,64.83
2022-09-16T02:44:30.578Z,64.93
2022-09-16T02:49:44.135Z,64.86
2022-09-16T02:54:53.930Z,65.05
2022-09-16T02:59:57.788Z,65.12
2022-09-16T03:05:03.479Z,65.28
2022-09-16T03:10:07.307Z,65.20
2022-09-16T03:15:32.052Z,65.23
2022-09-16T03:20:45.315Z,65.23
2022-09-16T03:25:58.231Z,65.39
2022-09-16T03:31:06.624Z,65.27
2022-09-16T03:36:15.230Z,65.43
2022-09-16T03:41:18.667Z,65.50
2022-09-16T03:46:21.356Z,65.32
2022-09-16T03:51:26.662Z,65.41
2022-09-16T03:56:29.360Z,65.36
2022-09-16T04:01:32.145Z,65.25
2022-09-16T04:06:36.918Z,65.51
2022-09-16T04:11:40.207Z,65.19
2022-09-16T04:16:45.167Z,65.08
2022-09-16T04:21:49.517Z,65.17
2022-09-16T04:26:52.174Z,64.88
2022-09-16T04:31:54.839Z,64.88
2022-09-16T04:36:58.993Z,64.97
2022-09-16T04:42:01.978Z,64.98
2022-09-16T04:47:04.697Z,64.66
2022-09-16T04:52:08.707Z,64.69
2022-09-16T04:57:11.393Z,64.79
2022-09-16T05:02:14.342Z,64.64
2022-09-16T05:07:18.441Z,64.67
2022-09-16T05:12:21.145Z,64.72
2022-09-16T05:17:49.456Z,64.68
2022-09-16T05:22:49.861Z,64.79
2022-09-16T05:27:52.489Z,64.72
2022-09-16T05:32:55.559Z,64.82
2022-09-16T05:37:59.675Z,64.88
2022-09-16T05:43:02.299Z,64.78
2022-09-16T05:48:05.050Z,64.74
2022-09-16T05:53:09.041Z,64.86
2022-09-16T05:58:11.733Z,64.81
2022-09-16T06:03:14.372Z,64.79
2022-09-16T06:08:18.377Z,64.87
2022-09-16T06:13:21.065Z,64.73
2022-09-16T06:18:25.507Z,64.81
2022-09-16T06:23:29.553Z,64.88
2022-09-16T06:28:32.432Z,64.72
2022-09-16T06:33:36.199Z,64.78
2022-09-16T06:38:41.097Z,64.79
2022-09-16T06:43:44.929Z,64.68
2022-09-16T06:48:50.140Z,64.67
2022-09-16T06:53:56.706Z,64.72
2022-09-16T06:58:59.581Z,64.82
2022-09-16T07:04:05.341Z,64.70
2022-09-16T07:09:10.171Z,64.78
2022-09-16T07:14:13.026Z,64.69
2022-09-16T07:19:15.659Z,64.60
2022-09-16T07:24:19.826Z,64.48
2022-09-16T07:29:22.493Z,64.61
2022-09-16T07:34:25.127Z,57.93
2022-09-16T07:39:29.348Z,59.83
2022-09-16T07:44:31.969Z,60.20
2022-09-16T07:49:34.645Z,60.64
2022-09-16T07:54:38.661Z,60.91
2022-09-16T07:59:41.312Z,61.15
2022-09-16T08:04:44.086Z,61.32
2022-09-16T08:09:50.732Z,61.74
2022-09-16T08:14:55.235Z,61.82
2022-09-16T08:19:57.900Z,61.85
2022-09-16T08:25:01.993Z,61.92
2022-09-16T08:30:05.801Z,62.40
2022-09-16T08:35:09.256Z,62.64
2022-09-16T08:45:32.038Z,62.81
2022-09-16T08:50:38.787Z,62.78
2022-09-16T08:55:47.087Z,62.86
2022-09-16T09:00:56.005Z,62.71
2022-09-16T09:06:00.763Z,62.78
2022-09-16T09:11:11.641Z,62.74
2022-09-16T09:16:23.930Z,62.91
2022-09-16T09:21:36.254Z,63.19
2022-09-16T09:26:49.922Z,63.23
2022-09-16T09:31:58.976Z,63.42
2022-09-16T09:37:19.670Z,63.50
2022-09-16T09:42:28.693Z,63.56
2022-09-16T09:47:35.162Z,63.65
2022-09-16T09:52:44.987Z,63.70
2022-09-16T09:58:17.691Z,63.58
2022-09-16T10:03:20.507Z,63.49
2022-09-16T10:08:28.523Z,63.50
2022-09-16T10:13:32.569Z,63.48
2022-09-16T10:18:35.486Z,63.76
2022-09-16T10:23:39.425Z,63.72
2022-09-16T10:28:55.328Z,64.38
2022-09-16T10:34:00.238Z,66.66
2022-09-16T10:39:05.576Z,66.19
2022-09-16T10:44:18.499Z,66.24
2022-09-16T10:49:26.401Z,66.16
2022-09-16T10:54:29.770Z,66.12
2022-09-16T10:59:33.884Z,65.92
2022-09-16T11:04:55.851Z,65.95
2022-09-16T11:10:12.159Z,65.24
2022-09-16T11:15:29.410Z,65.20
2022-09-16T11:20:55.111Z,64.90
2022-09-16T11:26:04.802Z,64.84
2022-09-16T11:31:18.823Z,65.13
2022-09-16T11:36:38.170Z,65.13
2022-09-16T11:41:48.307Z,64.94
2022-09-16T11:47:06.809Z,64.80
2022-09-16T11:52:26.467Z,64.79
2022-09-16T11:57:33.391Z,65.12
2022-09-16T12:02:42.219Z,65.36
2022-09-16T12:07:53.378Z,65.43
2022-09-16T12:13:01.526Z,65.47
2022-09-16T12:18:11.720Z,65.53
2022-09-16T12:23:19.590Z,65.60
2022-09-16T12:28:30.387Z,65.80
2022-09-16T12:33:40.415Z,65.95
2022-09-16T12:38:43.380Z,65.95
2022-09-16T12:44:35.877Z,66.17
2022-09-16T12:50:12.735Z,65.69
2022-09-16T12:55:38.656Z,65.09
2022-09-16T13:00:51.430Z,64.53
2022-09-16T13:05:59.023Z,64.47
2022-09-16T13:11:41.209Z,64.18
2022-09-16T13:16:33.940Z,64.03
2022-09-16T13:21:44.569Z,63.71
2022-09-16T13:26:47.309Z,63.74
2022-09-16T13:31:50.324Z,62.64
2022-09-16T13:36:54.507Z,62.47
2022-09-16T13:41:57.190Z,62.14
2022-09-16T13:47:17.507Z,61.58
2022-09-16T13:52:25.598Z,61.33
2022-09-16T13:57:38.602Z,61.20
2022-09-16T14:02:55.124Z,61.38
2022-09-16T14:08:08.283Z,61.96
2022-09-16T14:13:14.824Z,61.92
2022-09-16T14:18:21.089Z,62.78
2022-09-16T14:23:26.504Z,63.17
2022-09-16T14:28:29.899Z,62.80
2022-09-16T14:33:36.043Z,59.13
2022-09-16T14:38:46.596Z,59.60
2022-09-16T14:43:49.960Z,59.62
2022-09-16T14:48:52.956Z,58.98
2022-09-16T14:54:15.484Z,57.96
2022-09-16T14:59:18.926Z,57.84
2022-09-16T15:04:27.558Z,57.48
2022-09-16T15:09:40.315Z,57.32
2022-09-16T15:14:43.068Z,56.99
2022-09-16T15:19:51.435Z,56.87
2022-09-16T15:24:58.662Z,56.37
2022-09-16T15:30:05.779Z,56.64
2022-09-16T15:35:19.609Z,56.37
2022-09-16T15:40:31.984Z,56.48
2022-09-16T15:45:34.735Z,56.96
2022-09-16T15:50:43.578Z,57.20
2022-09-16T15:55:58.927Z,57.27
2022-09-16T16:01:04.521Z,57.50
2022-09-16T16:06:07.786Z,57.59
2022-09-16T16:11:14.025Z,57.42
2022-09-16T16:16:18.316Z,57.36
2022-09-16T16:21:21.240Z,57.42
2022-09-16T16:26:25.245Z,57.26
2022-09-16T16:31:28.155Z,56.59
2022-09-16T16:36:30.936Z,55.90
2022-09-16T16:41:35.012Z,55.34
2022-09-16T16:46:37.725Z,55.19
2022-09-16T16:51:40.445Z,55.92
2022-09-16T16:56:44.481Z,55.05
2022-09-16T17:01:49.232Z,54.95
2022-09-16T17:07:08.514Z,55.28
2022-09-16T17:12:18.036Z,55.48
2022-09-16T17:17:20.809Z,55.73
2022-09-16T17:22:23.652Z,56.35
2022-09-16T17:27:27.933Z,56.38
2022-09-16T17:32:30.641Z,56.23
2022-09-16T17:37:33.261Z,56.74
2022-09-16T17:42:37.354Z,56.39
2022-09-16T17:47:40.238Z,57.30
2022-09-16T17:52:42.912Z,57.01
2022-09-16T17:57:47.098Z,56.91
2022-09-16T18:02:49.776Z,57.01
2022-09-16T18:07:52.467Z,57.01
2022-09-16T18:12:58.050Z,56.88
2022-09-16T18:18:00.684Z,57.00
2022-09-16T18:23:03.370Z,57.65
2022-09-16T18:28:07.419Z,57.82
2022-09-16T18:33:10.154Z,57.69
2022-09-16T18:38:12.968Z,57.77
2022-09-16T18:43:17.129Z,57.73
2022-09-16T18:48:19.902Z,57.73
2022-09-16T18:53:22.532Z,58.00
2022-09-16T18:58:26.611Z,58.46
2022-09-16T19:03:29.427Z,58.43
2022-09-16T19:08:32.705Z,58.42
2022-09-16T19:13:37.160Z,58.33
2022-09-16T19:18:40.737Z,58.71
2022-09-16T19:23:43.634Z,58.77
2022-09-16T19:28:47.691Z,59.01
2022-09-16T19:33:50.434Z,58.93
2022-09-16T19:38:53.770Z,59.33
2022-09-16T19:43:59.385Z,59.25
2022-09-16T19:49:02.200Z,59.26
2022-09-16T19:54:05.018Z,59.41
2022-09-16T19:59:09.701Z,59.19
2022-09-16T20:04:12.329Z,59.06
2022-09-16T20:09:15.077Z,59.02
2022-09-16T20:14:20.820Z,59.29
2022-09-16T20:19:23.449Z,59.08
2022-09-16T20:24:26.581Z,59.33
2022-09-16T20:29:31.829Z,59.16
2022-09-16T20:34:34.541Z,59.28
2022-09-16T20:39:37.395Z,59.54
2022-09-16T20:44:41.381Z,59.25
2022-09-16T20:49:44.116Z,58.95
2022-09-16T20:54:46.997Z,59.16
2022-09-16T20:59:51.521Z,59.01
2022-09-16T21:04:54.152Z,58.90
2022-09-16T21:09:56.917Z,59.26
2022-09-16T21:15:00.872Z,59.13
2022-09-16T21:20:03.934Z,58.84
2022-09-16T21:25:07.314Z,58.87
2022-09-16T21:30:13.622Z,58.97
2022-09-16T21:35:17.087Z,59.14
2022-09-16T21:40:23.504Z,59.11
2022-09-16T21:45:27.627Z,58.91
2022-09-16T21:50:30.282Z,58.97
2022-09-16T21:55:33.058Z,58.91
2022-09-16T22:00:38.276Z,58.76
2022-09-16T22:05:40.987Z,58.47
2022-09-16T22:10:43.635Z,58.57
2022-09-16T22:15:52.074Z,58.85
2022-09-16T22:20:58.544Z,58.88
2022-09-16T22:26:05.146Z,58.43
2022-09-16T22:31:11.397Z,58.64
2022-09-16T22:36:16.302Z,58.50
2022-09-16T22:41:19.471Z,58.38
2022-09-16T22:46:24.964Z,58.61
2022-09-16T22:51:29.055Z,58.25
2022-09-16T22:56:33.486Z,58.38
2022-09-16T23:01:39.965Z,58.55
2022-09-16T23:06:43.204Z,58.26
2022-09-16T23:11:46.483Z,58.39
2022-09-16T23:16:50.573Z,58.09
2022-09-16T23:21:53.211Z,58.16
2022-09-16T23:26:55.943Z,58.54
2022-09-16T23:32:02.718Z,58.43
2022-09-16T23:37:05.430Z,58.31
2022-09-16T23:42:08.698Z,58.73
2022-09-16T23:47:12.730Z,58.79
2022-09-16T23:52:15.646Z,58.72
2022-09-16T23:57:18.362Z,58.47
